sensor_id;sensor_type;location;lat;lon;timestamp;pressure;altitude;pressure_sealevel;temperature;humidity
48622;BME280;34421;48.944;9.460;2023-04-27T00:00:09;98610.19;;;9.27;56.28
48622;BME280;34421;48.944;9.460;2023-04-27T00:02:35;98610.56;;;9.17;56.39
48622;BME280;34421;48.944;9.460;2023-04-27T00:05:02;98609.47;;;9.05;56.95
48622;BME280;34421;48.944;9.460;2023-04-27T00:07:27;98612.69;;;8.94;57.44
48622;BME280;34421;48.944;9.460;2023-04-27T00:09:53;98614.50;;;8.86;57.82
48622;BME280;34421;48.944;9.460;2023-04-27T00:12:18;98609.94;;;8.80;57.27
48622;BME280;34421;48.944;9.460;2023-04-27T00:14:43;98606.25;;;8.75;57.84
48622;BME280;34421;48.944;9.460;2023-04-27T00:17:08;98607.63;;;8.71;57.93
48622;BME280;34421;48.944;9.460;2023-04-27T00:19:33;98595.97;;;8.65;57.84
48622;BME280;34421;48.944;9.460;2023-04-27T00:21:59;98604.53;;;8.60;57.88
48622;BME280;34421;48.944;9.460;2023-04-27T00:24:24;98600.81;;;8.55;58.08
48622;BME280;34421;48.944;9.460;2023-04-27T00:26:49;98606.06;;;8.48;57.68
48622;BME280;34421;48.944;9.460;2023-04-27T00:29:15;98597.44;;;8.39;58.36
48622;BME280;34421;48.944;9.460;2023-04-27T00:31:40;98607.78;;;8.34;58.55
48622;BME280;34421;48.944;9.460;2023-04-27T00:34:05;98592.63;;;8.28;58.95
48622;BME280;34421;48.944;9.460;2023-04-27T00:36:32;98595.66;;;8.25;58.75
48622;BME280;34421;48.944;9.460;2023-04-27T00:38:57;98594.59;;;8.19;58.90
48622;BME280;34421;48.944;9.460;2023-04-27T00:41:22;98593.97;;;8.17;58.86
48622;BME280;34421;48.944;9.460;2023-04-27T00:43:48;98585.13;;;8.10;58.88
48622;BME280;34421;48.944;9.460;2023-04-27T00:46:13;98589.00;;;8.08;59.08
48622;BME280;34421;48.944;9.460;2023-04-27T00:48:39;98590.13;;;7.98;59.04
48622;BME280;34421;48.944;9.460;2023-04-27T00:51:04;98590.91;;;7.92;58.80
48622;BME280;34421;48.944;9.460;2023-04-27T00:53:30;98584.72;;;7.85;59.47
48622;BME280;34421;48.944;9.460;2023-04-27T00:55:55;98590.75;;;7.79;59.63
48622;BME280;34421;48.944;9.460;2023-04-27T00:58:22;98587.88;;;7.74;59.97
48622;BME280;34421;48.944;9.460;2023-04-27T01:00:47;98586.44;;;7.71;59.62
48622;BME280;34421;48.944;9.460;2023-04-27T01:03:12;98589.25;;;7.70;59.45
48622;BME280;34421;48.944;9.460;2023-04-27T01:05:38;98586.16;;;7.66;60.18
48622;BME280;34421;48.944;9.460;2023-04-27T01:08:03;98593.66;;;7.63;59.82
48622;BME280;34421;48.944;9.460;2023-04-27T01:10:29;98595.50;;;7.62;60.20
48622;BME280;34421;48.944;9.460;2023-04-27T01:12:54;98600.00;;;7.62;59.79
48622;BME280;34421;48.944;9.460;2023-04-27T01:15:19;98591.41;;;7.60;60.23
48622;BME280;34421;48.944;9.460;2023-04-27T01:17:45;98595.06;;;7.59;60.04
48622;BME280;34421;48.944;9.460;2023-04-27T01:20:11;98597.50;;;7.60;60.31
48622;BME280;34421;48.944;9.460;2023-04-27T01:22:36;98593.03;;;7.61;59.99
48622;BME280;34421;48.944;9.460;2023-04-27T01:25:02;98596.31;;;7.63;59.82
48622;BME280;34421;48.944;9.460;2023-04-27T01:27:27;98595.50;;;7.62;59.91
48622;BME280;34421;48.944;9.460;2023-04-27T01:29:52;98600.00;;;7.62;59.90
48622;BME280;34421;48.944;9.460;2023-04-27T01:32:17;98595.50;;;7.62;60.00
48622;BME280;34421;48.944;9.460;2023-04-27T01:34:43;98593.66;;;7.63;60.00
48622;BME280;34421;48.944;9.460;2023-04-27T01:37:08;98592.03;;;7.62;60.00
48622;BME280;34421;48.944;9.460;2023-04-27T01:39:33;98597.50;;;7.60;59.84
48622;BME280;34421;48.944;9.460;2023-04-27T01:41:58;98589.94;;;7.57;59.83
48622;BME280;34421;48.944;9.460;2023-04-27T01:44:24;98590.53;;;7.52;59.84
48622;BME280;34421;48.944;9.460;2023-04-27T01:46:49;98591.72;;;7.50;59.91
48622;BME280;34421;48.944;9.460;2023-04-27T01:49:14;98598.19;;;7.47;59.96
48622;BME280;34421;48.944;9.460;2023-04-27T01:51:39;98590.63;;;7.44;60.19
48622;BME280;34421;48.944;9.460;2023-04-27T01:54:05;98592.00;;;7.40;60.76
48622;BME280;34421;48.944;9.460;2023-04-27T01:56:30;98595.66;;;7.39;60.76
48622;BME280;34421;48.944;9.460;2023-04-27T01:58:55;98606.25;;;7.39;60.48
48622;BME280;34421;48.944;9.460;2023-04-27T02:01:20;98606.25;;;7.39;60.74
48622;BME280;34421;48.944;9.460;2023-04-27T02:03:46;98611.19;;;7.42;60.49
48622;BME280;34421;48.944;9.460;2023-04-27T02:06:11;98611.00;;;7.44;60.83
48622;BME280;34421;48.944;9.460;2023-04-27T02:08:37;98608.34;;;7.44;60.70
48622;BME280;34421;48.944;9.460;2023-04-27T02:11:02;98605.88;;;7.42;60.57
48622;BME280;34421;48.944;9.460;2023-04-27T02:13:27;98612.19;;;7.41;60.54
48622;BME280;34421;48.944;9.460;2023-04-27T02:15:52;98615.22;;;7.38;60.43
48622;BME280;34421;48.944;9.460;2023-04-27T02:18:19;98611.94;;;7.36;60.53
48622;BME280;34421;48.944;9.460;2023-04-27T02:20:45;98609.44;;;7.35;60.53
48622;BME280;34421;48.944;9.460;2023-04-27T02:23:10;98615.59;;;7.35;60.71
48622;BME280;34421;48.944;9.460;2023-04-27T02:25:35;98611.13;;;7.36;60.70
48622;BME280;34421;48.944;9.460;2023-04-27T02:28:01;98615.22;;;7.38;60.28
48622;BME280;34421;48.944;9.460;2023-04-27T02:30:27;98616.84;;;7.39;60.72
48622;BME280;34421;48.944;9.460;2023-04-27T02:32:52;98617.66;;;7.40;60.73
48622;BME280;34421;48.944;9.460;2023-04-27T02:35:17;98621.78;;;7.42;60.40
48622;BME280;34421;48.944;9.460;2023-04-27T02:37:43;98620.97;;;7.42;60.77
48622;BME280;34421;48.944;9.460;2023-04-27T02:40:08;98629.72;;;7.42;60.89
48622;BME280;34421;48.944;9.460;2023-04-27T02:42:34;98628.25;;;7.40;60.96
48622;BME280;34421;48.944;9.460;2023-04-27T02:44:59;98628.09;;;7.41;60.82
48622;BME280;34421;48.944;9.460;2023-04-27T02:47:24;98630.38;;;7.44;60.89
48622;BME280;34421;48.944;9.460;2023-04-27T02:49:50;98632.66;;;7.47;61.17
48622;BME280;34421;48.944;9.460;2023-04-27T02:52:15;98628.16;;;7.48;60.65
48622;BME280;34421;48.944;9.460;2023-04-27T02:54:41;98632.66;;;7.47;60.94
48622;BME280;34421;48.944;9.460;2023-04-27T02:57:06;98634.09;;;7.50;60.96
48622;BME280;34421;48.944;9.460;2023-04-27T02:59:31;98630.44;;;7.51;61.09
48622;BME280;34421;48.944;9.460;2023-04-27T03:01:56;98637.19;;;7.53;61.20
48622;BME280;34421;48.944;9.460;2023-04-27T03:04:22;98637.19;;;7.53;61.14
48622;BME280;34421;48.944;9.460;2023-04-27T03:06:47;98631.91;;;7.53;61.53
48622;BME280;34421;48.944;9.460;2023-04-27T03:09:12;98634.19;;;7.57;61.14
48622;BME280;34421;48.944;9.460;2023-04-27T03:11:37;98628.88;;;7.57;61.26
48622;BME280;34421;48.944;9.460;2023-04-27T03:14:03;98635.81;;;7.58;61.55
48622;BME280;34421;48.944;9.460;2023-04-27T03:16:32;98634.19;;;7.57;61.39
48622;BME280;34421;48.944;9.460;2023-04-27T03:18:57;98635.81;;;7.58;61.92
48622;BME280;34421;48.944;9.460;2023-04-27T03:21:24;98633.59;;;7.61;61.65
48622;BME280;34421;48.944;9.460;2023-04-27T03:23:50;98629.31;;;7.60;61.99
48622;BME280;34421;48.944;9.460;2023-04-27T03:26:16;98633.44;;;7.63;61.33
48622;BME280;34421;48.944;9.460;2023-04-27T03:28:41;98643.66;;;7.66;61.46
48622;BME280;34421;48.944;9.460;2023-04-27T03:31:07;98639.38;;;7.65;61.37
48622;BME280;34421;48.944;9.460;2023-04-27T03:33:32;98635.06;;;7.64;61.14
48622;BME280;34421;48.944;9.460;2023-04-27T03:35:58;98635.88;;;7.64;60.97
48622;BME280;34421;48.944;9.460;2023-04-27T03:38:24;98635.69;;;7.66;60.89
48622;BME280;34421;48.944;9.460;2023-04-27T03:40:49;98636.50;;;7.66;60.69
48622;BME280;34421;48.944;9.460;2023-04-27T03:43:15;98628.78;;;7.65;60.71
48622;BME280;34421;48.944;9.460;2023-04-27T03:45:40;98629.59;;;7.65;60.55
48622;BME280;34421;48.944;9.460;2023-04-27T03:48:06;98630.41;;;7.66;60.32
48622;BME280;34421;48.944;9.460;2023-04-27T03:50:31;98624.91;;;7.67;60.78
48622;BME280;34421;48.944;9.460;2023-04-27T03:52:56;98632.22;;;7.65;60.58
48622;BME280;34421;48.944;9.460;2023-04-27T03:55:21;98632.41;;;7.64;60.79
48622;BME280;34421;48.944;9.460;2023-04-27T03:57:46;98632.59;;;7.62;61.28
48622;BME280;34421;48.944;9.460;2023-04-27T04:00:12;98630.13;;;7.61;61.38
48622;BME280;34421;48.944;9.460;2023-04-27T04:02:38;98635.06;;;7.64;62.13
48622;BME280;34421;48.944;9.460;2023-04-27T04:05:04;98645.47;;;7.65;61.73
48622;BME280;34421;48.944;9.460;2023-04-27T04:07:29;98642.00;;;7.65;61.64
48622;BME280;34421;48.944;9.460;2023-04-27T04:09:54;98636.50;;;7.66;61.96
48622;BME280;34421;48.944;9.460;2023-04-27T04:12:20;98637.53;;;7.65;61.85
48622;BME280;34421;48.944;9.460;2023-04-27T04:14:45;98636.34;;;7.68;62.28
48622;BME280;34421;48.944;9.460;2023-04-27T04:17:12;98637.97;;;7.69;61.80
48622;BME280;34421;48.944;9.460;2023-04-27T04:19:38;98642.91;;;7.72;62.17
48622;BME280;34421;48.944;9.460;2023-04-27T04:22:03;98642.97;;;7.79;61.99
48622;BME280;34421;48.944;9.460;2023-04-27T04:24:29;98643.06;;;7.85;61.81
48622;BME280;34421;48.944;9.460;2023-04-27T04:26:54;98638.19;;;7.89;61.93
48622;BME280;34421;48.944;9.460;2023-04-27T04:29:19;98642.91;;;7.93;61.44
48622;BME280;34421;48.944;9.460;2023-04-27T04:31:45;98641.34;;;7.99;61.56
48622;BME280;34421;48.944;9.460;2023-04-27T04:34:11;98643.81;;;8.01;61.33
48622;BME280;34421;48.944;9.460;2023-04-27T04:36:36;98642.78;;;8.02;61.10
48622;BME280;34421;48.944;9.460;2023-04-27T04:39:02;98651.38;;;8.04;60.93
48622;BME280;34421;48.944;9.460;2023-04-27T04:41:29;98659.94;;;8.06;61.24
48622;BME280;34421;48.944;9.460;2023-04-27T04:43:54;98661.41;;;8.08;60.92
48622;BME280;34421;48.944;9.460;2023-04-27T04:46:20;98653.06;;;8.11;61.05
48622;BME280;34421;48.944;9.460;2023-04-27T04:48:46;98659.44;;;8.17;61.29
48622;BME280;34421;48.944;9.460;2023-04-27T04:51:11;98659.72;;;8.22;60.78
48622;BME280;34421;48.944;9.460;2023-04-27T04:53:36;98659.31;;;8.25;60.79
48622;BME280;34421;48.944;9.460;2023-04-27T04:56:11;98661.78;;;8.27;60.81
48622;BME280;34421;48.944;9.460;2023-04-27T04:58:37;98657.94;;;8.29;60.89
48622;BME280;34421;48.944;9.460;2023-04-27T05:01:02;98664.50;;;8.33;60.89
48622;BME280;34421;48.944;9.460;2023-04-27T05:03:27;98664.94;;;8.37;60.70
48622;BME280;34421;48.944;9.460;2023-04-27T05:05:52;98672.16;;;8.43;60.79
48622;BME280;34421;48.944;9.460;2023-04-27T05:08:18;98663.63;;;8.48;61.18
48622;BME280;34421;48.944;9.460;2023-04-27T05:10:49;98667.53;;;8.52;61.37
48622;BME280;34421;48.944;9.460;2023-04-27T05:13:14;98667.41;;;8.60;61.41
48622;BME280;34421;48.944;9.460;2023-04-27T05:15:40;98668.25;;;8.67;61.12
48622;BME280;34421;48.944;9.460;2023-04-27T05:18:05;98664.44;;;8.76;61.36
48622;BME280;34421;48.944;9.460;2023-04-27T05:20:33;98664.50;;;8.83;61.12
48622;BME280;34421;48.944;9.460;2023-04-27T05:22:58;98665.97;;;8.92;60.98
48622;BME280;34421;48.944;9.460;2023-04-27T05:25:23;98664.84;;;9.01;60.43
48622;BME280;34421;48.944;9.460;2023-04-27T05:27:48;98666.06;;;9.05;60.28
48622;BME280;34421;48.944;9.460;2023-04-27T05:30:14;98665.91;;;9.13;60.01
48622;BME280;34421;48.944;9.460;2023-04-27T05:32:39;98665.56;;;9.23;60.36
48622;BME280;34421;48.944;9.460;2023-04-27T05:35:07;98660.09;;;9.31;59.77
48622;BME280;34421;48.944;9.460;2023-04-27T05:37:33;98662.16;;;9.43;59.70
48622;BME280;34421;48.944;9.460;2023-04-27T05:39:59;98657.31;;;9.53;59.92
48622;BME280;34421;48.944;9.460;2023-04-27T05:42:24;98664.25;;;9.61;60.32
48622;BME280;34421;48.944;9.460;2023-04-27T05:44:49;98655.13;;;9.70;59.51
48622;BME280;34421;48.944;9.460;2023-04-27T05:47:14;98663.34;;;9.81;59.89
48622;BME280;34421;48.944;9.460;2023-04-27T05:49:40;98669.25;;;9.90;59.32
48622;BME280;34421;48.944;9.460;2023-04-27T05:52:05;98670.94;;;10.04;59.01
48622;BME280;34421;48.944;9.460;2023-04-27T05:54:30;98677.50;;;10.15;58.99
48622;BME280;34421;48.944;9.460;2023-04-27T05:56:56;98680.59;;;10.25;58.02
48622;BME280;34421;48.944;9.460;2023-04-27T05:59:21;98675.31;;;10.39;57.82
48622;BME280;34421;48.944;9.460;2023-04-27T06:01:46;98684.97;;;10.53;57.24
48622;BME280;34421;48.944;9.460;2023-04-27T06:04:11;98687.38;;;10.61;57.69
48622;BME280;34421;48.944;9.460;2023-04-27T06:06:36;98681.47;;;10.72;57.55
48622;BME280;34421;48.944;9.460;2023-04-27T06:09:02;98692.72;;;10.81;58.19
48622;BME280;34421;48.944;9.460;2023-04-27T06:11:28;98693.94;;;10.99;56.58
48622;BME280;34421;48.944;9.460;2023-04-27T06:13:53;98686.31;;;11.15;57.44
48622;BME280;34421;48.944;9.460;2023-04-27T06:16:18;98688.53;;;11.32;56.48
48622;BME280;34421;48.944;9.460;2023-04-27T06:18:44;98698.94;;;11.47;56.24
48622;BME280;34421;48.944;9.460;2023-04-27T06:21:10;98695.00;;;11.56;55.76
48622;BME280;34421;48.944;9.460;2023-04-27T06:23:35;98701.28;;;11.75;55.19
48622;BME280;34421;48.944;9.460;2023-04-27T06:26:00;98696.97;;;11.87;55.31
48622;BME280;34421;48.944;9.460;2023-04-27T06:28:25;98696.88;;;12.00;55.68
48622;BME280;34421;48.944;9.460;2023-04-27T06:30:51;98698.63;;;12.20;54.85
48622;BME280;34421;48.944;9.460;2023-04-27T06:33:17;98697.22;;;12.42;53.84
48622;BME280;34421;48.944;9.460;2023-04-27T06:35:43;98696.38;;;12.73;53.99
48622;BME280;34421;48.944;9.460;2023-04-27T06:38:08;98695.09;;;13.01;53.33
48622;BME280;34421;48.944;9.460;2023-04-27T06:40:34;98697.31;;;13.29;52.65
48622;BME280;34421;48.944;9.460;2023-04-27T06:42:59;98680.84;;;13.51;51.96
48622;BME280;34421;48.944;9.460;2023-04-27T06:45:24;98682.78;;;13.74;51.17
48622;BME280;34421;48.944;9.460;2023-04-27T06:47:49;98690.72;;;13.99;51.06
48622;BME280;34421;48.944;9.460;2023-04-27T06:50:15;98689.38;;;14.20;50.88
48622;BME280;34421;48.944;9.460;2023-04-27T06:52:40;98695.03;;;14.42;49.87
48622;BME280;34421;48.944;9.460;2023-04-27T06:55:05;98695.56;;;14.74;49.41
48622;BME280;34421;48.944;9.460;2023-04-27T06:57:31;98693.72;;;14.98;48.63
48622;BME280;34421;48.944;9.460;2023-04-27T06:59:56;98694.50;;;15.34;47.81
48622;BME280;34421;48.944;9.460;2023-04-27T07:02:21;98705.44;;;15.67;47.03
48622;BME280;34421;48.944;9.460;2023-04-27T07:04:46;98698.66;;;16.05;46.48
48622;BME280;34421;48.944;9.460;2023-04-27T07:07:11;98697.69;;;16.40;45.44
48622;BME280;34421;48.944;9.460;2023-04-27T07:09:37;98696.56;;;16.70;44.84
48622;BME280;34421;48.944;9.460;2023-04-27T07:12:02;98702.84;;;16.92;43.90
48622;BME280;34421;48.944;9.460;2023-04-27T07:14:28;98703.16;;;17.13;43.24
48622;BME280;34421;48.944;9.460;2023-04-27T07:16:53;98707.81;;;17.39;43.68
48622;BME280;34421;48.944;9.460;2023-04-27T07:19:18;98705.28;;;17.49;42.45
48622;BME280;34421;48.944;9.460;2023-04-27T07:21:43;98713.25;;;17.61;43.13
48622;BME280;34421;48.944;9.460;2023-04-27T07:24:09;98713.66;;;17.75;42.25
48622;BME280;34421;48.944;9.460;2023-04-27T07:26:34;98716.94;;;17.99;41.94
48622;BME280;34421;48.944;9.460;2023-04-27T07:29:00;98714.25;;;18.26;41.42
48622;BME280;34421;48.944;9.460;2023-04-27T07:31:25;98714.97;;;18.43;40.70
48622;BME280;34421;48.944;9.460;2023-04-27T07:33:50;98714.59;;;18.62;40.58
48622;BME280;34421;48.944;9.460;2023-04-27T07:36:16;98714.03;;;18.87;40.32
48622;BME280;34421;48.944;9.460;2023-04-27T07:38:42;98708.50;;;19.09;39.31
48622;BME280;34421;48.944;9.460;2023-04-27T07:41:08;98702.13;;;19.25;38.86
48622;BME280;34421;48.944;9.460;2023-04-27T07:43:34;98691.94;;;19.38;39.11
48622;BME280;34421;48.944;9.460;2023-04-27T07:46:00;98692.50;;;19.45;39.14
48622;BME280;34421;48.944;9.460;2023-04-27T07:48:25;98690.75;;;19.66;39.06
48622;BME280;34421;48.944;9.460;2023-04-27T07:50:51;98688.72;;;20.03;37.98
48622;BME280;34421;48.944;9.460;2023-04-27T07:53:16;98691.78;;;20.53;37.34
48622;BME280;34421;48.944;9.460;2023-04-27T07:55:42;98692.28;;;21.16;35.24
48622;BME280;34421;48.944;9.460;2023-04-27T07:58:10;98689.88;;;21.90;34.15
48622;BME280;34421;48.944;9.460;2023-04-27T08:00:35;98682.28;;;22.37;33.47
48622;BME280;34421;48.944;9.460;2023-04-27T08:03:01;98691.88;;;22.92;29.33
48622;BME280;34421;48.944;9.460;2023-04-27T08:05:26;98696.72;;;23.30;30.09
48622;BME280;34421;48.944;9.460;2023-04-27T08:07:51;98689.41;;;23.25;28.48
48622;BME280;34421;48.944;9.460;2023-04-27T08:10:17;98694.19;;;23.38;28.38
48622;BME280;34421;48.944;9.460;2023-04-27T08:12:43;98691.47;;;23.86;27.38
48622;BME280;34421;48.944;9.460;2023-04-27T08:15:08;98692.34;;;25.23;25.23
48622;BME280;34421;48.944;9.460;2023-04-27T08:17:34;98693.66;;;26.31;24.40
48622;BME280;34421;48.944;9.460;2023-04-27T08:20:00;98688.41;;;30.10;21.48
48622;BME280;34421;48.944;9.460;2023-04-27T08:22:25;98674.16;;;33.27;18.83
48622;BME280;34421;48.944;9.460;2023-04-27T08:24:50;98660.19;;;36.33;15.19
48622;BME280;34421;48.944;9.460;2023-04-27T08:27:16;98664.16;;;37.06;14.44
48622;BME280;34421;48.944;9.460;2023-04-27T08:29:45;98653.22;;;37.72;13.15
48622;BME280;34421;48.944;9.460;2023-04-27T08:32:11;98649.75;;;39.49;12.64
48622;BME280;34421;48.944;9.460;2023-04-27T08:34:36;98644.25;;;40.54;12.17
48622;BME280;34421;48.944;9.460;2023-04-27T08:37:02;98634.91;;;41.38;11.36
48622;BME280;34421;48.944;9.460;2023-04-27T08:39:28;98631.56;;;42.26;10.44
48622;BME280;34421;48.944;9.460;2023-04-27T08:41:53;98631.34;;;42.71;9.68
48622;BME280;34421;48.944;9.460;2023-04-27T08:44:19;98621.94;;;43.12;9.65
48622;BME280;34421;48.944;9.460;2023-04-27T08:46:44;98620.00;;;43.56;9.20
48622;BME280;34421;48.944;9.460;2023-04-27T08:49:09;98608.13;;;44.28;8.63
48622;BME280;34421;48.944;9.460;2023-04-27T08:51:35;98616.06;;;45.02;8.70
48622;BME280;34421;48.944;9.460;2023-04-27T08:54:00;98610.19;;;45.30;8.24
48622;BME280;34421;48.944;9.460;2023-04-27T08:56:26;98605.94;;;45.38;7.85
48622;BME280;34421;48.944;9.460;2023-04-27T08:58:52;98613.47;;;45.57;7.44
48622;BME280;34421;48.944;9.460;2023-04-27T09:01:18;98607.03;;;46.02;7.51
48622;BME280;34421;48.944;9.460;2023-04-27T09:03:43;98610.91;;;46.59;6.78
48622;BME280;34421;48.944;9.460;2023-04-27T09:06:10;98610.38;;;46.65;6.95
48622;BME280;34421;48.944;9.460;2023-04-27T09:08:42;98608.34;;;46.78;6.52
48622;BME280;34421;48.944;9.460;2023-04-27T09:11:08;98607.66;;;46.35;6.76
48622;BME280;34421;48.944;9.460;2023-04-27T09:13:34;98608.00;;;46.89;6.96
48622;BME280;34421;48.944;9.460;2023-04-27T09:15:59;98599.28;;;46.96;6.71
48622;BME280;34421;48.944;9.460;2023-04-27T09:18:24;98608.22;;;46.01;6.69
48622;BME280;34421;48.944;9.460;2023-04-27T09:20:51;98611.22;;;45.52;6.70
48622;BME280;34421;48.944;9.460;2023-04-27T09:23:26;98608.91;;;45.47;7.12
48622;BME280;34421;48.944;9.460;2023-04-27T09:25:52;98607.25;;;45.33;7.71
48622;BME280;34421;48.944;9.460;2023-04-27T09:28:18;98608.06;;;45.79;7.31
48622;BME280;34421;48.944;9.460;2023-04-27T09:30:50;98615.75;;;46.33;7.38
48622;BME280;34421;48.944;9.460;2023-04-27T09:33:20;98615.50;;;46.41;7.28
48622;BME280;34421;48.944;9.460;2023-04-27T09:35:46;98619.94;;;46.00;6.22
48622;BME280;34421;48.944;9.460;2023-04-27T09:38:12;98617.88;;;45.42;6.97
48622;BME280;34421;48.944;9.460;2023-04-27T09:40:38;98617.31;;;45.01;7.15
48622;BME280;34421;48.944;9.460;2023-04-27T09:43:04;98619.22;;;45.37;7.32
48622;BME280;34421;48.944;9.460;2023-04-27T09:45:31;98621.38;;;45.62;7.39
48622;BME280;34421;48.944;9.460;2023-04-27T09:47:57;98611.28;;;45.48;7.23
48622;BME280;34421;48.944;9.460;2023-04-27T09:50:22;98613.53;;;45.70;7.02
48622;BME280;34421;48.944;9.460;2023-04-27T09:52:47;98603.56;;;45.82;7.20
48622;BME280;34421;48.944;9.460;2023-04-27T09:55:14;98610.50;;;46.19;6.77
48622;BME280;34421;48.944;9.460;2023-04-27T10:00:18;98602.22;;;46.28;7.14
48622;BME280;34421;48.944;9.460;2023-04-27T10:02:48;98600.22;;;46.42;6.92
48622;BME280;34421;48.944;9.460;2023-04-27T10:07:50;98595.81;;;46.53;6.68
48622;BME280;34421;48.944;9.460;2023-04-27T10:10:16;98598.25;;;46.26;6.72
48622;BME280;34421;48.944;9.460;2023-04-27T10:12:54;98595.19;;;45.78;6.80
48622;BME280;34421;48.944;9.460;2023-04-27T10:15:24;98589.66;;;45.91;6.54
48622;BME280;34421;48.944;9.460;2023-04-27T10:17:50;98591.53;;;46.36;6.77
48622;BME280;34421;48.944;9.460;2023-04-27T10:20:35;98593.56;;;45.52;6.61
48622;BME280;34421;48.944;9.460;2023-04-27T10:23:01;98601.44;;;44.58;6.96
48622;BME280;34421;48.944;9.460;2023-04-27T10:25:36;98604.25;;;44.58;6.64
48622;BME280;34421;48.944;9.460;2023-04-27T10:28:02;98593.84;;;44.92;6.53
48622;BME280;34421;48.944;9.460;2023-04-27T10:30:35;98597.72;;;44.98;6.32
48622;BME280;34421;48.944;9.460;2023-04-27T10:33:07;98596.22;;;45.10;6.51
48622;BME280;34421;48.944;9.460;2023-04-27T10:40:38;98600.13;;;45.45;6.43
48622;BME280;34421;48.944;9.460;2023-04-27T10:43:07;98588.53;;;44.81;6.78
48622;BME280;34421;48.944;9.460;2023-04-27T10:45:32;98596.03;;;44.31;7.61
48622;BME280;34421;48.944;9.460;2023-04-27T10:47:58;98595.09;;;44.74;7.10
48622;BME280;34421;48.944;9.460;2023-04-27T10:50:24;98588.47;;;44.65;6.82
48622;BME280;34421;48.944;9.460;2023-04-27T10:52:49;98586.44;;;43.92;6.87
48622;BME280;34421;48.944;9.460;2023-04-27T10:55:18;98590.47;;;43.05;7.01
48622;BME280;34421;48.944;9.460;2023-04-27T10:57:51;98591.34;;;42.74;7.43
48622;BME280;34421;48.944;9.460;2023-04-27T11:00:37;98578.16;;;42.71;7.63
48622;BME280;34421;48.944;9.460;2023-04-27T11:03:10;98577.91;;;42.35;6.84
48622;BME280;34421;48.944;9.460;2023-04-27T11:05:35;98582.25;;;42.09;7.04
48622;BME280;34421;48.944;9.460;2023-04-27T11:08:05;98581.41;;;42.12;7.47
48622;BME280;34421;48.944;9.460;2023-04-27T11:10:31;98584.72;;;42.03;6.80
48622;BME280;34421;48.944;9.460;2023-04-27T11:12:56;98585.41;;;41.39;6.92
48622;BME280;34421;48.944;9.460;2023-04-27T11:15:21;98586.06;;;40.57;7.28
48622;BME280;34421;48.944;9.460;2023-04-27T11:17:46;98580.19;;;40.40;7.33
48622;BME280;34421;48.944;9.460;2023-04-27T11:20:12;98576.00;;;40.00;7.43
48622;BME280;34421;48.944;9.460;2023-04-27T11:22:43;98574.59;;;39.31;8.46
48622;BME280;34421;48.944;9.460;2023-04-27T11:25:10;98580.75;;;38.02;8.82
48622;BME280;34421;48.944;9.460;2023-04-27T11:27:38;98585.13;;;36.15;10.29
48622;BME280;34421;48.944;9.460;2023-04-27T11:30:04;98592.31;;;33.86;12.32
48622;BME280;34421;48.944;9.460;2023-04-27T11:32:31;98593.00;;;32.24;13.28
48622;BME280;34421;48.944;9.460;2023-04-27T11:34:56;98582.66;;;31.28;13.71
48622;BME280;34421;48.944;9.460;2023-04-27T11:37:25;98600.78;;;30.26;15.16
48622;BME280;34421;48.944;9.460;2023-04-27T11:39:51;98592.34;;;29.59;14.73
48622;BME280;34421;48.944;9.460;2023-04-27T11:42:20;98596.47;;;29.15;14.95
48622;BME280;34421;48.944;9.460;2023-04-27T11:44:51;98590.84;;;28.64;15.76
48622;BME280;34421;48.944;9.460;2023-04-27T11:47:17;98598.28;;;28.37;16.46
48622;BME280;34421;48.944;9.460;2023-04-27T11:50:04;98596.69;;;28.28;17.02
48622;BME280;34421;48.944;9.460;2023-04-27T11:52:32;98596.69;;;28.02;17.78
48622;BME280;34421;48.944;9.460;2023-04-27T11:54:58;98596.97;;;27.65;17.47
48622;BME280;34421;48.944;9.460;2023-04-27T11:57:24;98596.59;;;27.32;17.20
48622;BME280;34421;48.944;9.460;2023-04-27T11:59:51;98595.09;;;27.17;17.05
48622;BME280;34421;48.944;9.460;2023-04-27T12:02:16;98600.28;;;26.96;18.61
48622;BME280;34421;48.944;9.460;2023-04-27T12:04:41;98597.22;;;26.35;19.21
48622;BME280;34421;48.944;9.460;2023-04-27T12:07:07;98595.91;;;25.88;18.77
48622;BME280;34421;48.944;9.460;2023-04-27T12:09:32;98597.91;;;25.68;19.91
48622;BME280;34421;48.944;9.460;2023-04-27T12:11:58;98586.94;;;25.46;20.84
48622;BME280;34421;48.944;9.460;2023-04-27T12:14:23;98588.16;;;25.40;20.40
48622;BME280;34421;48.944;9.460;2023-04-27T12:16:48;98583.56;;;25.27;20.65
48622;BME280;34421;48.944;9.460;2023-04-27T12:19:14;98586.94;;;24.91;22.54
48622;BME280;34421;48.944;9.460;2023-04-27T12:21:39;98582.09;;;24.60;21.60
48622;BME280;34421;48.944;9.460;2023-04-27T12:24:04;98592.78;;;24.38;21.61
48622;BME280;34421;48.944;9.460;2023-04-27T12:26:29;98588.22;;;24.33;21.66
48622;BME280;34421;48.944;9.460;2023-04-27T12:28:54;98586.81;;;24.36;21.71
48622;BME280;34421;48.944;9.460;2023-04-27T12:31:20;98581.16;;;24.32;22.08
48622;BME280;34421;48.944;9.460;2023-04-27T12:33:48;98585.97;;;24.21;23.05
48622;BME280;34421;48.944;9.460;2023-04-27T12:36:14;98590.56;;;24.07;23.03
48622;BME280;34421;48.944;9.460;2023-04-27T12:38:40;98583.13;;;23.94;23.23
48622;BME280;34421;48.944;9.460;2023-04-27T12:41:05;98573.56;;;23.96;23.87
48622;BME280;34421;48.944;9.460;2023-04-27T12:43:30;98579.78;;;23.83;24.32
48622;BME280;34421;48.944;9.460;2023-04-27T12:45:56;98568.78;;;23.69;23.78
48622;BME280;34421;48.944;9.460;2023-04-27T12:48:21;98565.84;;;23.23;25.49
48622;BME280;34421;48.944;9.460;2023-04-27T12:50:47;98563.88;;;23.09;24.70
48622;BME280;34421;48.944;9.460;2023-04-27T12:53:12;98571.06;;;23.19;24.35
48622;BME280;34421;48.944;9.460;2023-04-27T12:55:37;98565.06;;;23.22;24.46
48622;BME280;34421;48.944;9.460;2023-04-27T12:58:03;98560.53;;;23.36;24.72
48622;BME280;34421;48.944;9.460;2023-04-27T13:00:29;98566.94;;;23.46;25.02
48622;BME280;34421;48.944;9.460;2023-04-27T13:02:54;98560.97;;;23.43;25.06
48622;BME280;34421;48.944;9.460;2023-04-27T13:05:20;98556.59;;;23.48;24.75
48622;BME280;34421;48.944;9.460;2023-04-27T13:07:46;98555.03;;;23.60;24.69
48622;BME280;34421;48.944;9.460;2023-04-27T13:10:11;98544.16;;;23.60;25.07